Alger, Washington
Current Conditions -  °F | °C
As of 5:35 AM on Monday 24 Nov 2014 (Local Time) from KBVS Reporting Station
Clear Clear  
Wind Chill: 40°   Ceiling: Unl
Heat Index: 45°   Visibility: 10mi
Dew Point: 41°   Wind: 8mph
Humidity: 87%   Direction: 80°E
Pressure: 30.33"   Gusts: NA
Location:  48.4982°N, 122.346°W
Report Text: KBVS 241335Z AUTO 08007KT 10SM CLR 07/05 A3033 RMK A01 P000
Loading
Personal Weather Stations






























Interactive Weather Map New forecast layout! Learn more

10-Day Weather Forecast

Advertisements
Track Severe Weather on mobile